sensor_id;sensor_type;location;lat;lon;timestamp;P1;durP1;ratioP1;P2;durP2;ratioP2
1300;SDS011;59099;48.806;9.160;2022-12-07T00:01:15;9.87;;;8.53;;
1300;SDS011;59099;48.806;9.160;2022-12-07T00:03:43;9.97;;;8.90;;
1300;SDS011;59099;48.806;9.160;2022-12-07T00:06:10;9.77;;;8.80;;
1300;SDS011;59099;48.806;9.160;2022-12-07T00:08:37;11.00;;;9.80;;
1300;SDS011;59099;48.806;9.160;2022-12-07T00:11:07;10.23;;;8.53;;
1300;SDS011;59099;48.806;9.160;2022-12-07T00:13:35;11.00;;;9.80;;
1300;SDS011;59099;48.806;9.160;2022-12-07T00:16:02;10.03;;;8.80;;
1300;SDS011;59099;48.806;9.160;2022-12-07T00:18:40;11.80;;;9.93;;
1300;SDS011;59099;48.806;9.160;2022-12-07T00:21:11;11.77;;;9.63;;
1300;SDS011;59099;48.806;9.160;2022-12-07T00:23:39;12.80;;;9.67;;
1300;SDS011;59099;48.806;9.160;2022-12-07T00:26:12;10.83;;;9.83;;
1300;SDS011;59099;48.806;9.160;2022-12-07T00:28:40;13.40;;;10.40;;
1300;SDS011;59099;48.806;9.160;2022-12-07T00:31:07;10.63;;;9.53;;
1300;SDS011;59099;48.806;9.160;2022-12-07T00:33:37;14.27;;;10.43;;
1300;SDS011;59099;48.806;9.160;2022-12-07T00:36:04;10.97;;;8.57;;
1300;SDS011;59099;48.806;9.160;2022-12-07T00:38:33;13.10;;;9.57;;
1300;SDS011;59099;48.806;9.160;2022-12-07T00:41:04;13.60;;;11.10;;
1300;SDS011;59099;48.806;9.160;2022-12-07T00:43:32;12.93;;;10.87;;
1300;SDS011;59099;48.806;9.160;2022-12-07T00:45:57;13.13;;;11.40;;
1300;SDS011;59099;48.806;9.160;2022-12-07T00:48:24;9.97;;;8.97;;
1300;SDS011;59099;48.806;9.160;2022-12-07T00:50:50;12.70;;;10.20;;
1300;SDS011;59099;48.806;9.160;2022-12-07T00:53:17;11.47;;;9.77;;
1300;SDS011;59099;48.806;9.160;2022-12-07T00:55:43;12.70;;;10.73;;
1300;SDS011;59099;48.806;9.160;2022-12-07T00:58:09;11.63;;;9.73;;
1300;SDS011;59099;48.806;9.160;2022-12-07T01:00:36;10.23;;;9.13;;
1300;SDS011;59099;48.806;9.160;2022-12-07T01:03:04;10.40;;;9.23;;
1300;SDS011;59099;48.806;9.160;2022-12-07T01:05:30;12.03;;;10.07;;
1300;SDS011;59099;48.806;9.160;2022-12-07T01:07:56;13.40;;;10.50;;
1300;SDS011;59099;48.806;9.160;2022-12-07T01:10:22;12.97;;;10.70;;
1300;SDS011;59099;48.806;9.160;2022-12-07T01:12:47;12.27;;;10.93;;
1300;SDS011;59099;48.806;9.160;2022-12-07T01:15:13;13.03;;;11.30;;
1300;SDS011;59099;48.806;9.160;2022-12-07T01:17:39;11.17;;;9.97;;
1300;SDS011;59099;48.806;9.160;2022-12-07T01:20:05;12.60;;;10.93;;
1300;SDS011;59099;48.806;9.160;2022-12-07T01:22:35;14.20;;;11.33;;
1300;SDS011;59099;48.806;9.160;2022-12-07T01:25:06;19.33;;;11.60;;
1300;SDS011;59099;48.806;9.160;2022-12-07T01:27:33;11.40;;;9.93;;
1300;SDS011;59099;48.806;9.160;2022-12-07T01:29:59;13.40;;;10.10;;
1300;SDS011;59099;48.806;9.160;2022-12-07T01:32:26;11.97;;;10.00;;
1300;SDS011;59099;48.806;9.160;2022-12-07T01:34:52;14.63;;;11.50;;
1300;SDS011;59099;48.806;9.160;2022-12-07T01:37:17;13.77;;;10.77;;
1300;SDS011;59099;48.806;9.160;2022-12-07T01:39:43;14.20;;;11.47;;
1300;SDS011;59099;48.806;9.160;2022-12-07T01:42:10;12.10;;;10.27;;
1300;SDS011;59099;48.806;9.160;2022-12-07T01:47:39;15.40;;;10.70;;
1300;SDS011;59099;48.806;9.160;2022-12-07T01:50:06;11.63;;;9.50;;
1300;SDS011;59099;48.806;9.160;2022-12-07T01:52:33;15.10;;;10.97;;
1300;SDS011;59099;48.806;9.160;2022-12-07T01:55:01;13.50;;;10.43;;
1300;SDS011;59099;48.806;9.160;2022-12-07T01:57:39;13.00;;;9.53;;
1300;SDS011;59099;48.806;9.160;2022-12-07T02:00:07;11.57;;;9.53;;
1300;SDS011;59099;48.806;9.160;2022-12-07T02:02:46;13.80;;;9.50;;
1300;SDS011;59099;48.806;9.160;2022-12-07T02:05:23;12.53;;;10.83;;
1300;SDS011;59099;48.806;9.160;2022-12-07T02:07:50;12.90;;;9.87;;
1300;SDS011;59099;48.806;9.160;2022-12-07T02:12:46;11.17;;;9.90;;
1300;SDS011;59099;48.806;9.160;2022-12-07T02:15:19;11.10;;;10.00;;
1300;SDS011;59099;48.806;9.160;2022-12-07T02:21:07;12.70;;;10.03;;
1300;SDS011;59099;48.806;9.160;2022-12-07T02:23:32;11.73;;;9.20;;
1300;SDS011;59099;48.806;9.160;2022-12-07T02:29:38;13.23;;;10.53;;
1300;SDS011;59099;48.806;9.160;2022-12-07T02:31:36;13.50;;;10.20;;
1300;SDS011;59099;48.806;9.160;2022-12-07T02:34:11;11.57;;;8.47;;
1300;SDS011;59099;48.806;9.160;2022-12-07T02:36:56;12.07;;;9.40;;
1300;SDS011;59099;48.806;9.160;2022-12-07T02:42:19;11.87;;;9.10;;
1300;SDS011;59099;48.806;9.160;2022-12-07T02:44:51;11.20;;;9.87;;
1300;SDS011;59099;48.806;9.160;2022-12-07T02:47:18;12.30;;;9.80;;
1300;SDS011;59099;48.806;9.160;2022-12-07T02:49:46;11.47;;;9.23;;
1300;SDS011;59099;48.806;9.160;2022-12-07T02:52:14;14.73;;;10.47;;
1300;SDS011;59099;48.806;9.160;2022-12-07T02:54:40;11.33;;;9.40;;
1300;SDS011;59099;48.806;9.160;2022-12-07T02:59:59;11.37;;;9.20;;
1300;SDS011;59099;48.806;9.160;2022-12-07T03:02:38;11.07;;;8.90;;
1300;SDS011;59099;48.806;9.160;2022-12-07T03:13:37;10.90;;;9.17;;
1300;SDS011;59099;48.806;9.160;2022-12-07T03:16:07;10.23;;;9.10;;
1300;SDS011;59099;48.806;9.160;2022-12-07T03:18:36;12.50;;;9.00;;
1300;SDS011;59099;48.806;9.160;2022-12-07T03:21:10;11.97;;;9.50;;
1300;SDS011;59099;48.806;9.160;2022-12-07T03:23:39;10.90;;;9.00;;
1300;SDS011;59099;48.806;9.160;2022-12-07T03:26:08;11.87;;;9.30;;
1300;SDS011;59099;48.806;9.160;2022-12-07T03:28:41;10.20;;;9.10;;
1300;SDS011;59099;48.806;9.160;2022-12-07T03:31:14;11.73;;;8.67;;
1300;SDS011;59099;48.806;9.160;2022-12-07T03:34:06;15.00;;;10.47;;
1300;SDS011;59099;48.806;9.160;2022-12-07T03:37:00;14.80;;;10.03;;
1300;SDS011;59099;48.806;9.160;2022-12-07T03:39:33;11.00;;;9.80;;
1300;SDS011;59099;48.806;9.160;2022-12-07T03:42:32;12.97;;;9.77;;
1300;SDS011;59099;48.806;9.160;2022-12-07T03:44:58;9.93;;;8.37;;
1300;SDS011;59099;48.806;9.160;2022-12-07T03:50:14;12.00;;;8.73;;
1300;SDS011;59099;48.806;9.160;2022-12-07T03:53:05;14.13;;;9.30;;
1300;SDS011;59099;48.806;9.160;2022-12-07T03:55:51;10.73;;;9.30;;
1300;SDS011;59099;48.806;9.160;2022-12-07T03:58:19;11.93;;;9.77;;
1300;SDS011;59099;48.806;9.160;2022-12-07T04:00:47;11.00;;;8.53;;
1300;SDS011;59099;48.806;9.160;2022-12-07T04:03:15;9.77;;;8.77;;
1300;SDS011;59099;48.806;9.160;2022-12-07T04:05:41;11.60;;;8.90;;
1300;SDS011;59099;48.806;9.160;2022-12-07T04:08:08;11.47;;;8.80;;
1300;SDS011;59099;48.806;9.160;2022-12-07T04:10:34;11.00;;;7.53;;
1300;SDS011;59099;48.806;9.160;2022-12-07T04:13:00;11.63;;;9.30;;
1300;SDS011;59099;48.806;9.160;2022-12-07T04:15:25;11.37;;;9.27;;
1300;SDS011;59099;48.806;9.160;2022-12-07T04:17:51;13.20;;;9.70;;
1300;SDS011;59099;48.806;9.160;2022-12-07T04:20:17;9.77;;;8.20;;
1300;SDS011;59099;48.806;9.160;2022-12-07T04:22:42;10.63;;;8.20;;
1300;SDS011;59099;48.806;9.160;2022-12-07T04:25:08;11.07;;;8.40;;
1300;SDS011;59099;48.806;9.160;2022-12-07T04:27:34;9.43;;;7.37;;
1300;SDS011;59099;48.806;9.160;2022-12-07T04:30:00;9.33;;;7.70;;
1300;SDS011;59099;48.806;9.160;2022-12-07T04:32:26;10.10;;;7.70;;
1300;SDS011;59099;48.806;9.160;2022-12-07T04:34:52;8.60;;;6.60;;
1300;SDS011;59099;48.806;9.160;2022-12-07T04:37:18;8.60;;;6.30;;
1300;SDS011;59099;48.806;9.160;2022-12-07T04:39:44;7.10;;;6.10;;
1300;SDS011;59099;48.806;9.160;2022-12-07T04:42:11;7.07;;;5.43;;
1300;SDS011;59099;48.806;9.160;2022-12-07T04:44:38;9.97;;;6.77;;
1300;SDS011;59099;48.806;9.160;2022-12-07T04:47:04;6.83;;;6.13;;
1300;SDS011;59099;48.806;9.160;2022-12-07T04:49:30;7.50;;;6.17;;
1300;SDS011;59099;48.806;9.160;2022-12-07T04:51:56;6.50;;;5.57;;
1300;SDS011;59099;48.806;9.160;2022-12-07T04:54:21;6.30;;;5.17;;
1300;SDS011;59099;48.806;9.160;2022-12-07T04:56:47;6.40;;;5.20;;
1300;SDS011;59099;48.806;9.160;2022-12-07T04:59:14;10.83;;;5.80;;
1300;SDS011;59099;48.806;9.160;2022-12-07T05:01:40;6.93;;;5.50;;
1300;SDS011;59099;48.806;9.160;2022-12-07T05:04:07;8.13;;;5.90;;
1300;SDS011;59099;48.806;9.160;2022-12-07T05:06:33;6.73;;;6.00;;
1300;SDS011;59099;48.806;9.160;2022-12-07T05:08:59;10.30;;;8.00;;
1300;SDS011;59099;48.806;9.160;2022-12-07T05:11:25;8.17;;;7.00;;
1300;SDS011;59099;48.806;9.160;2022-12-07T05:14:08;8.57;;;6.60;;
1300;SDS011;59099;48.806;9.160;2022-12-07T05:16:41;8.93;;;6.70;;
1300;SDS011;59099;48.806;9.160;2022-12-07T05:19:07;7.00;;;5.93;;
1300;SDS011;59099;48.806;9.160;2022-12-07T05:21:33;7.00;;;6.30;;
1300;SDS011;59099;48.806;9.160;2022-12-07T05:23:59;7.40;;;5.60;;
1300;SDS011;59099;48.806;9.160;2022-12-07T05:26:25;8.20;;;6.70;;
1300;SDS011;59099;48.806;9.160;2022-12-07T05:28:54;9.63;;;7.90;;
1300;SDS011;59099;48.806;9.160;2022-12-07T05:31:21;8.93;;;6.60;;
1300;SDS011;59099;48.806;9.160;2022-12-07T05:33:48;9.53;;;7.23;;
1300;SDS011;59099;48.806;9.160;2022-12-07T05:36:14;11.10;;;8.60;;
1300;SDS011;59099;48.806;9.160;2022-12-07T05:38:40;10.73;;;7.87;;
1300;SDS011;59099;48.806;9.160;2022-12-07T05:41:06;9.97;;;8.90;;
1300;SDS011;59099;48.806;9.160;2022-12-07T05:43:53;12.50;;;7.93;;
1300;SDS011;59099;48.806;9.160;2022-12-07T05:46:20;9.37;;;7.17;;
1300;SDS011;59099;48.806;9.160;2022-12-07T05:48:45;11.63;;;8.00;;
1300;SDS011;59099;48.806;9.160;2022-12-07T05:51:11;9.40;;;7.53;;
1300;SDS011;59099;48.806;9.160;2022-12-07T05:53:36;10.53;;;8.47;;
1300;SDS011;59099;48.806;9.160;2022-12-07T05:56:02;9.60;;;7.90;;
1300;SDS011;59099;48.806;9.160;2022-12-07T05:58:28;12.00;;;8.43;;
1300;SDS011;59099;48.806;9.160;2022-12-07T06:01:12;9.03;;;7.40;;
1300;SDS011;59099;48.806;9.160;2022-12-07T06:03:38;10.43;;;8.10;;
1300;SDS011;59099;48.806;9.160;2022-12-07T06:06:04;10.00;;;8.83;;
1300;SDS011;59099;48.806;9.160;2022-12-07T06:08:30;10.10;;;8.40;;
1300;SDS011;59099;48.806;9.160;2022-12-07T06:10:55;10.30;;;7.50;;
1300;SDS011;59099;48.806;9.160;2022-12-07T06:13:40;10.03;;;8.43;;
1300;SDS011;59099;48.806;9.160;2022-12-07T06:16:05;9.87;;;6.77;;
1300;SDS011;59099;48.806;9.160;2022-12-07T06:18:32;8.67;;;7.30;;
1300;SDS011;59099;48.806;9.160;2022-12-07T06:20:57;9.53;;;7.60;;
1300;SDS011;59099;48.806;9.160;2022-12-07T06:23:23;10.27;;;7.73;;
1300;SDS011;59099;48.806;9.160;2022-12-07T06:25:49;26.73;;;13.53;;
1300;SDS011;59099;48.806;9.160;2022-12-07T06:28:15;11.37;;;8.53;;
1300;SDS011;59099;48.806;9.160;2022-12-07T06:30:40;9.63;;;8.03;;
1300;SDS011;59099;48.806;9.160;2022-12-07T06:33:06;12.03;;;9.17;;
1300;SDS011;59099;48.806;9.160;2022-12-07T06:35:32;11.13;;;8.07;;
1300;SDS011;59099;48.806;9.160;2022-12-07T06:37:59;10.40;;;8.00;;
1300;SDS011;59099;48.806;9.160;2022-12-07T06:40:24;11.70;;;7.70;;
1300;SDS011;59099;48.806;9.160;2022-12-07T06:42:50;7.57;;;6.40;;
1300;SDS011;59099;48.806;9.160;2022-12-07T06:45:16;10.10;;;7.00;;
1300;SDS011;59099;48.806;9.160;2022-12-07T06:47:42;11.30;;;6.53;;
1300;SDS011;59099;48.806;9.160;2022-12-07T06:50:08;9.43;;;7.17;;
1300;SDS011;59099;48.806;9.160;2022-12-07T06:52:34;14.20;;;8.60;;
1300;SDS011;59099;48.806;9.160;2022-12-07T06:55:00;13.10;;;9.00;;
1300;SDS011;59099;48.806;9.160;2022-12-07T06:57:26;17.23;;;10.30;;
1300;SDS011;59099;48.806;9.160;2022-12-07T06:59:52;13.83;;;9.50;;
1300;SDS011;59099;48.806;9.160;2022-12-07T07:02:17;17.90;;;9.70;;
1300;SDS011;59099;48.806;9.160;2022-12-07T07:04:43;11.93;;;7.50;;
1300;SDS011;59099;48.806;9.160;2022-12-07T07:07:09;15.20;;;9.80;;
1300;SDS011;59099;48.806;9.160;2022-12-07T07:09:35;18.40;;;9.70;;
1300;SDS011;59099;48.806;9.160;2022-12-07T07:12:01;26.00;;;12.17;;
1300;SDS011;59099;48.806;9.160;2022-12-07T07:14:27;9.13;;;6.70;;
1300;SDS011;59099;48.806;9.160;2022-12-07T07:16:54;5.40;;;4.60;;
1300;SDS011;59099;48.806;9.160;2022-12-07T07:19:20;9.53;;;5.70;;
1300;SDS011;59099;48.806;9.160;2022-12-07T07:21:46;12.17;;;7.30;;
1300;SDS011;59099;48.806;9.160;2022-12-07T07:24:11;15.23;;;8.73;;
1300;SDS011;59099;48.806;9.160;2022-12-07T07:26:37;25.73;;;13.27;;
1300;SDS011;59099;48.806;9.160;2022-12-07T07:29:03;29.93;;;12.30;;
1300;SDS011;59099;48.806;9.160;2022-12-07T07:31:29;12.20;;;6.93;;
1300;SDS011;59099;48.806;9.160;2022-12-07T07:33:54;17.30;;;8.67;;
1300;SDS011;59099;48.806;9.160;2022-12-07T07:36:20;24.60;;;11.07;;
1300;SDS011;59099;48.806;9.160;2022-12-07T07:38:46;23.17;;;11.00;;
1300;SDS011;59099;48.806;9.160;2022-12-07T07:41:12;29.57;;;11.53;;
1300;SDS011;59099;48.806;9.160;2022-12-07T07:43:38;54.13;;;20.10;;
1300;SDS011;59099;48.806;9.160;2022-12-07T07:46:04;87.53;;;26.10;;
1300;SDS011;59099;48.806;9.160;2022-12-07T07:48:29;14.83;;;6.20;;
1300;SDS011;59099;48.806;9.160;2022-12-07T07:50:55;8.70;;;4.90;;
1300;SDS011;59099;48.806;9.160;2022-12-07T07:53:21;14.67;;;5.83;;
1300;SDS011;59099;48.806;9.160;2022-12-07T07:55:50;24.80;;;9.80;;
1300;SDS011;59099;48.806;9.160;2022-12-07T07:58:18;26.83;;;9.87;;
1300;SDS011;59099;48.806;9.160;2022-12-07T08:00:44;12.93;;;7.30;;
1300;SDS011;59099;48.806;9.160;2022-12-07T08:03:09;23.10;;;9.40;;
1300;SDS011;59099;48.806;9.160;2022-12-07T08:05:36;7.67;;;5.50;;
1300;SDS011;59099;48.806;9.160;2022-12-07T08:08:03;5.13;;;4.57;;
1300;SDS011;59099;48.806;9.160;2022-12-07T08:10:29;5.17;;;4.47;;
1300;SDS011;59099;48.806;9.160;2022-12-07T08:12:57;6.53;;;4.00;;
1300;SDS011;59099;48.806;9.160;2022-12-07T08:15:36;11.77;;;6.47;;
1300;SDS011;59099;48.806;9.160;2022-12-07T08:18:03;26.10;;;10.50;;
1300;SDS011;59099;48.806;9.160;2022-12-07T08:20:32;12.57;;;7.17;;
1300;SDS011;59099;48.806;9.160;2022-12-07T08:22:59;27.27;;;10.57;;
1300;SDS011;59099;48.806;9.160;2022-12-07T08:25:25;26.70;;;10.80;;
1300;SDS011;59099;48.806;9.160;2022-12-07T08:27:51;7.80;;;6.00;;
1300;SDS011;59099;48.806;9.160;2022-12-07T08:30:17;6.90;;;5.53;;
1300;SDS011;59099;48.806;9.160;2022-12-07T08:32:47;10.60;;;6.37;;
1300;SDS011;59099;48.806;9.160;2022-12-07T08:35:15;6.73;;;5.00;;
1300;SDS011;59099;48.806;9.160;2022-12-07T08:37:41;6.80;;;4.87;;
1300;SDS011;59099;48.806;9.160;2022-12-07T08:40:07;7.20;;;5.00;;
1300;SDS011;59099;48.806;9.160;2022-12-07T08:42:34;6.03;;;4.73;;
1300;SDS011;59099;48.806;9.160;2022-12-07T08:45:09;6.00;;;5.17;;
1300;SDS011;59099;48.806;9.160;2022-12-07T08:47:37;5.90;;;4.67;;
1300;SDS011;59099;48.806;9.160;2022-12-07T08:50:10;5.07;;;4.10;;
1300;SDS011;59099;48.806;9.160;2022-12-07T08:52:37;4.60;;;3.67;;
1300;SDS011;59099;48.806;9.160;2022-12-07T08:55:06;5.30;;;3.40;;
1300;SDS011;59099;48.806;9.160;2022-12-07T08:57:36;6.33;;;3.97;;
1300;SDS011;59099;48.806;9.160;2022-12-07T09:00:04;6.33;;;3.63;;
1300;SDS011;59099;48.806;9.160;2022-12-07T09:02:31;5.07;;;3.93;;
1300;SDS011;59099;48.806;9.160;2022-12-07T09:04:57;9.13;;;4.93;;
1300;SDS011;59099;48.806;9.160;2022-12-07T09:07:26;5.50;;;4.30;;
1300;SDS011;59099;48.806;9.160;2022-12-07T09:09:52;5.67;;;4.53;;
1300;SDS011;59099;48.806;9.160;2022-12-07T09:12:17;8.70;;;4.97;;
1300;SDS011;59099;48.806;9.160;2022-12-07T09:14:44;5.87;;;5.27;;
1300;SDS011;59099;48.806;9.160;2022-12-07T09:17:10;4.90;;;3.87;;
1300;SDS011;59099;48.806;9.160;2022-12-07T09:19:41;4.97;;;3.53;;
1300;SDS011;59099;48.806;9.160;2022-12-07T09:22:07;3.23;;;2.93;;
1300;SDS011;59099;48.806;9.160;2022-12-07T09:24:34;2.87;;;2.63;;
1300;SDS011;59099;48.806;9.160;2022-12-07T09:27:00;3.50;;;3.13;;
1300;SDS011;59099;48.806;9.160;2022-12-07T09:29:26;3.50;;;3.20;;
1300;SDS011;59099;48.806;9.160;2022-12-07T09:31:52;3.30;;;3.00;;
1300;SDS011;59099;48.806;9.160;2022-12-07T09:34:18;3.50;;;2.80;;
1300;SDS011;59099;48.806;9.160;2022-12-07T09:36:43;3.33;;;3.07;;
1300;SDS011;59099;48.806;9.160;2022-12-07T09:39:09;3.03;;;2.50;;
1300;SDS011;59099;48.806;9.160;2022-12-07T09:41:39;2.80;;;2.53;;
1300;SDS011;59099;48.806;9.160;2022-12-07T09:44:12;4.20;;;3.37;;
1300;SDS011;59099;48.806;9.160;2022-12-07T09:46:42;9.63;;;3.37;;
1300;SDS011;59099;48.806;9.160;2022-12-07T09:49:20;3.93;;;3.63;;
1300;SDS011;59099;48.806;9.160;2022-12-07T09:54:33;3.50;;;2.80;;
1300;SDS011;59099;48.806;9.160;2022-12-07T09:57:02;3.60;;;3.30;;
1300;SDS011;59099;48.806;9.160;2022-12-07T09:59:28;3.67;;;2.90;;
1300;SDS011;59099;48.806;9.160;2022-12-07T10:01:54;3.93;;;3.00;;
1300;SDS011;59099;48.806;9.160;2022-12-07T10:04:22;4.00;;;3.47;;
1300;SDS011;59099;48.806;9.160;2022-12-07T10:06:51;7.57;;;3.17;;
1300;SDS011;59099;48.806;9.160;2022-12-07T10:09:18;3.80;;;3.20;;
1300;SDS011;59099;48.806;9.160;2022-12-07T10:14:33;6.27;;;4.10;;
1300;SDS011;59099;48.806;9.160;2022-12-07T10:17:01;7.70;;;3.63;;
1300;SDS011;59099;48.806;9.160;2022-12-07T10:19:28;3.87;;;3.50;;
1300;SDS011;59099;48.806;9.160;2022-12-07T10:24:28;5.50;;;4.33;;
1300;SDS011;59099;48.806;9.160;2022-12-07T10:26:54;5.43;;;4.47;;
1300;SDS011;59099;48.806;9.160;2022-12-07T10:29:21;4.73;;;3.40;;
1300;SDS011;59099;48.806;9.160;2022-12-07T10:39:42;4.97;;;3.93;;
1300;SDS011;59099;48.806;9.160;2022-12-07T10:44:49;5.50;;;5.00;;
1300;SDS011;59099;48.806;9.160;2022-12-07T10:50:27;5.47;;;4.40;;
1300;SDS011;59099;48.806;9.160;2022-12-07T11:01:34;8.10;;;4.23;;
1300;SDS011;59099;48.806;9.160;2022-12-07T11:07:25;4.23;;;3.83;;
1300;SDS011;59099;48.806;9.160;2022-12-07T11:21:30;4.70;;;3.87;;
1300;SDS011;59099;48.806;9.160;2022-12-07T11:24:24;5.50;;;4.93;;
1300;SDS011;59099;48.806;9.160;2022-12-07T11:35:08;3.30;;;3.00;;
1300;SDS011;59099;48.806;9.160;2022-12-07T11:38:18;3.03;;;2.50;;
1300;SDS011;59099;48.806;9.160;2022-12-07T11:40:49;3.53;;;3.23;;
1300;SDS011;59099;48.806;9.160;2022-12-07T11:43:22;3.93;;;3.53;;
1300;SDS011;59099;48.806;9.160;2022-12-07T11:46:04;4.80;;;3.33;;
1300;SDS011;59099;48.806;9.160;2022-12-07T11:48:46;6.80;;;4.67;;
1300;SDS011;59099;48.806;9.160;2022-12-07T11:51:33;5.20;;;4.70;;
1300;SDS011;59099;48.806;9.160;2022-12-07T11:54:04;5.70;;;4.70;;
1300;SDS011;59099;48.806;9.160;2022-12-07T11:56:37;5.40;;;4.90;;
1300;SDS011;59099;48.806;9.160;2022-12-07T11:59:12;5.37;;;4.83;;
1300;SDS011;59099;48.806;9.160;2022-12-07T12:01:53;5.37;;;4.70;;
1300;SDS011;59099;48.806;9.160;2022-12-07T12:07:14;7.43;;;4.93;;
1300;SDS011;59099;48.806;9.160;2022-12-07T12:10:04;8.20;;;5.20;;
1300;SDS011;59099;48.806;9.160;2022-12-07T12:12:44;7.97;;;6.17;;
1300;SDS011;59099;48.806;9.160;2022-12-07T12:23:07;7.57;;;5.90;;
1300;SDS011;59099;48.806;9.160;2022-12-07T12:25:46;5.93;;;5.33;;
1300;SDS011;59099;48.806;9.160;2022-12-07T12:28:39;5.87;;;5.27;;
1300;SDS011;59099;48.806;9.160;2022-12-07T12:31:15;7.87;;;5.50;;
1300;SDS011;59099;48.806;9.160;2022-12-07T12:36:24;8.60;;;7.70;;
1300;SDS011;59099;48.806;9.160;2022-12-07T12:51:49;6.77;;;5.93;;
1300;SDS011;59099;48.806;9.160;2022-12-07T12:56:47;8.10;;;6.27;;
1300;SDS011;59099;48.806;9.160;2022-12-07T13:36:57;7.37;;;5.60;;
1300;SDS011;59099;48.806;9.160;2022-12-07T13:39:51;8.40;;;7.00;;
1300;SDS011;59099;48.806;9.160;2022-12-07T13:42:21;7.47;;;6.20;;
1300;SDS011;59099;48.806;9.160;2022-12-07T13:44:58;7.57;;;6.47;;
1300;SDS011;59099;48.806;9.160;2022-12-07T13:50:15;8.70;;;5.40;;
1300;SDS011;59099;48.806;9.160;2022-12-07T13:52:57;6.90;;;6.23;;
1300;SDS011;59099;48.806;9.160;2022-12-07T13:55:25;7.30;;;6.10;;
1300;SDS011;59099;48.806;9.160;2022-12-07T13:57:52;6.70;;;6.00;;
1300;SDS011;59099;48.806;9.160;2022-12-07T14:00:20;8.00;;;6.50;;
1300;SDS011;59099;48.806;9.160;2022-12-07T14:05:26;9.97;;;8.23;;
1300;SDS011;59099;48.806;9.160;2022-12-07T14:12:57;7.50;;;6.70;;
1300;SDS011;59099;48.806;9.160;2022-12-07T14:15:28;7.77;;;6.60;;
1300;SDS011;59099;48.806;9.160;2022-12-07T14:17:58;7.80;;;7.00;;
1300;SDS011;59099;48.806;9.160;2022-12-07T14:20:29;6.67;;;5.80;;
1300;SDS011;59099;48.806;9.160;2022-12-07T14:23:03;7.87;;;5.97;;
1300;SDS011;59099;48.806;9.160;2022-12-07T14:28:26;9.70;;;7.70;;
1300;SDS011;59099;48.806;9.160;2022-12-07T14:30:53;9.40;;;6.90;;
1300;SDS011;59099;48.806;9.160;2022-12-07T14:33:19;8.83;;;7.10;;
1300;SDS011;59099;48.806;9.160;2022-12-07T14:35:46;7.63;;;6.33;;
1300;SDS011;59099;48.806;9.160;2022-12-07T14:38:11;8.37;;;6.50;;
1300;SDS011;59099;48.806;9.160;2022-12-07T14:40:37;9.93;;;6.63;;
1300;SDS011;59099;48.806;9.160;2022-12-07T14:43:06;10.13;;;5.80;;
1300;SDS011;59099;48.806;9.160;2022-12-07T14:45:36;8.07;;;7.17;;
1300;SDS011;59099;48.806;9.160;2022-12-07T14:48:02;7.90;;;6.33;;
1300;SDS011;59099;48.806;9.160;2022-12-07T14:50:28;10.33;;;6.40;;
1300;SDS011;59099;48.806;9.160;2022-12-07T14:53:01;9.17;;;8.00;;
1300;SDS011;59099;48.806;9.160;2022-12-07T14:55:36;8.20;;;7.40;;
1300;SDS011;59099;48.806;9.160;2022-12-07T14:58:05;7.77;;;5.90;;
1300;SDS011;59099;48.806;9.160;2022-12-07T15:00:33;8.73;;;6.57;;
1300;SDS011;59099;48.806;9.160;2022-12-07T15:02:59;6.83;;;6.10;;
1300;SDS011;59099;48.806;9.160;2022-12-07T15:05:25;7.40;;;6.53;;
1300;SDS011;59099;48.806;9.160;2022-12-07T15:07:51;9.00;;;7.40;;
1300;SDS011;59099;48.806;9.160;2022-12-07T15:10:23;9.70;;;7.40;;
1300;SDS011;59099;48.806;9.160;2022-12-07T15:12:58;8.60;;;6.37;;
1300;SDS011;59099;48.806;9.160;2022-12-07T15:15:49;12.53;;;9.73;;
1300;SDS011;59099;48.806;9.160;2022-12-07T15:18:17;9.73;;;8.20;;
1300;SDS011;59099;48.806;9.160;2022-12-07T15:20:44;8.77;;;6.03;;
1300;SDS011;59099;48.806;9.160;2022-12-07T15:23:10;7.00;;;6.00;;
1300;SDS011;59099;48.806;9.160;2022-12-07T15:25:36;10.27;;;7.87;;
1300;SDS011;59099;48.806;9.160;2022-12-07T15:28:06;6.87;;;6.17;;
1300;SDS011;59099;48.806;9.160;2022-12-07T15:30:32;8.43;;;6.53;;
1300;SDS011;59099;48.806;9.160;2022-12-07T15:32:57;8.87;;;6.03;;
1300;SDS011;59099;48.806;9.160;2022-12-07T15:35:26;9.83;;;7.27;;
1300;SDS011;59099;48.806;9.160;2022-12-07T15:37:52;9.40;;;7.53;;
1300;SDS011;59099;48.806;9.160;2022-12-07T15:40:17;9.27;;;7.40;;
1300;SDS011;59099;48.806;9.160;2022-12-07T15:42:43;8.83;;;7.93;;
1300;SDS011;59099;48.806;9.160;2022-12-07T15:45:09;15.13;;;9.77;;
1300;SDS011;59099;48.806;9.160;2022-12-07T15:47:36;11.47;;;9.63;;
1300;SDS011;59099;48.806;9.160;2022-12-07T15:50:04;12.20;;;8.63;;
1300;SDS011;59099;48.806;9.160;2022-12-07T15:52:32;10.70;;;7.77;;
1300;SDS011;59099;48.806;9.160;2022-12-07T15:54:58;11.37;;;8.20;;
1300;SDS011;59099;48.806;9.160;2022-12-07T15:57:29;12.33;;;9.50;;
1300;SDS011;59099;48.806;9.160;2022-12-07T15:59:55;9.87;;;7.40;;
1300;SDS011;59099;48.806;9.160;2022-12-07T16:02:21;11.97;;;9.10;;
1300;SDS011;59099;48.806;9.160;2022-12-07T16:04:47;9.47;;;7.27;;
1300;SDS011;59099;48.806;9.160;2022-12-07T16:07:13;11.67;;;8.90;;
1300;SDS011;59099;48.806;9.160;2022-12-07T16:09:41;11.53;;;7.80;;
1300;SDS011;59099;48.806;9.160;2022-12-07T16:12:08;10.67;;;7.37;;
1300;SDS011;59099;48.806;9.160;2022-12-07T16:14:34;11.30;;;7.43;;
1300;SDS011;59099;48.806;9.160;2022-12-07T16:17:00;11.23;;;8.97;;
1300;SDS011;59099;48.806;9.160;2022-12-07T16:19:26;11.83;;;8.50;;
1300;SDS011;59099;48.806;9.160;2022-12-07T16:21:52;13.20;;;9.23;;
1300;SDS011;59099;48.806;9.160;2022-12-07T16:24:18;12.73;;;9.20;;
1300;SDS011;59099;48.806;9.160;2022-12-07T16:26:44;11.90;;;9.03;;
1300;SDS011;59099;48.806;9.160;2022-12-07T16:29:13;16.30;;;10.10;;
1300;SDS011;59099;48.806;9.160;2022-12-07T16:31:40;14.40;;;10.40;;
1300;SDS011;59099;48.806;9.160;2022-12-07T16:34:07;11.80;;;9.70;;
1300;SDS011;59099;48.806;9.160;2022-12-07T16:36:34;12.90;;;9.87;;
1300;SDS011;59099;48.806;9.160;2022-12-07T16:38:59;16.33;;;10.57;;
1300;SDS011;59099;48.806;9.160;2022-12-07T16:41:26;14.30;;;11.07;;
1300;SDS011;59099;48.806;9.160;2022-12-07T16:43:52;12.70;;;9.80;;
1300;SDS011;59099;48.806;9.160;2022-12-07T16:46:18;13.13;;;10.23;;
1300;SDS011;59099;48.806;9.160;2022-12-07T16:48:44;12.10;;;10.80;;
1300;SDS011;59099;48.806;9.160;2022-12-07T16:51:11;15.33;;;10.70;;
1300;SDS011;59099;48.806;9.160;2022-12-07T16:53:39;14.20;;;11.20;;
1300;SDS011;59099;48.806;9.160;2022-12-07T16:56:10;16.60;;;11.63;;
1300;SDS011;59099;48.806;9.160;2022-12-07T16:58:37;14.83;;;11.30;;
1300;SDS011;59099;48.806;9.160;2022-12-07T17:01:13;15.10;;;9.73;;
1300;SDS011;59099;48.806;9.160;2022-12-07T17:03:41;14.03;;;9.60;;
1300;SDS011;59099;48.806;9.160;2022-12-07T17:06:15;17.67;;;11.00;;
1300;SDS011;59099;48.806;9.160;2022-12-07T17:08:45;11.90;;;9.47;;
1300;SDS011;59099;48.806;9.160;2022-12-07T17:11:15;14.67;;;10.43;;
1300;SDS011;59099;48.806;9.160;2022-12-07T17:13:43;14.00;;;10.20;;
1300;SDS011;59099;48.806;9.160;2022-12-07T17:16:28;13.27;;;9.70;;
1300;SDS011;59099;48.806;9.160;2022-12-07T17:18:54;11.40;;;7.80;;
1300;SDS011;59099;48.806;9.160;2022-12-07T17:21:21;23.00;;;13.50;;
1300;SDS011;59099;48.806;9.160;2022-12-07T17:23:47;14.60;;;10.13;;
1300;SDS011;59099;48.806;9.160;2022-12-07T17:26:16;10.60;;;8.50;;
1300;SDS011;59099;48.806;9.160;2022-12-07T17:28:43;8.90;;;6.93;;
1300;SDS011;59099;48.806;9.160;2022-12-07T17:31:10;10.40;;;8.83;;
1300;SDS011;59099;48.806;9.160;2022-12-07T17:33:38;9.50;;;7.67;;
1300;SDS011;59099;48.806;9.160;2022-12-07T17:36:14;10.33;;;7.53;;
1300;SDS011;59099;48.806;9.160;2022-12-07T17:38:42;9.90;;;8.00;;
1300;SDS011;59099;48.806;9.160;2022-12-07T17:41:09;9.80;;;7.10;;
1300;SDS011;59099;48.806;9.160;2022-12-07T17:43:35;10.20;;;7.87;;
1300;SDS011;59099;48.806;9.160;2022-12-07T17:46:09;9.03;;;7.53;;